Industrial Strength — D5LJ6 — position and weather

sailwx.info

Track history (hours):
 
Tides and Currents Weather Stations Pressure Air Temp Water Temp Dewpoint Dewpoint Depression Visibility Wind Speed Wind Dir Waves Ship Positions

Industrial Strength

Last reported at 2018-Feb-22 01:58 UTC. Time now 2018-Feb-23 16:31 UTC.
Position N 43°45' W 069°28'.

Length 147 m; draft 6.4 m.

Type: Cargo ship. MMSI: 636017526.

Date/timePositionNaut miles runAvg speedWind from/ knotsBaromVisibWave heightAir tempDewpointWater temp
2018-Feb-22 01:58N 43°45' W 069°28'713.8
2018-Feb-22 01:29N 43°48' W 069°20'511.2
2018-Feb-22 01:00N 43°52' W 069°15'713.5
2018-Feb-22 00:30N 43°56' W 069°07'612.7
2018-Feb-22 00:00N 44°00' W 069°01'815.5
2018-Feb-21 23:30N 44°08' W 069°00'1014.9
2018-Feb-21 22:50N 44°18' W 068°57'814.6
2018-Feb-21 22:18N 44°25' W 068°54'  
2018-Feb-19 03:31N 44°27' W 068°54'0 1.4
2018-Feb-19 03:28N 44°27' W 068°54'8 8.5
2018-Feb-19 02:28N 44°19' W 068°57'715.2
2018-Feb-19 02:00N 44°12' W 069°00'815.0
2018-Feb-19 01:27N 44°04' W 069°01'613.4
2018-Feb-19 01:00N 43°58' W 069°02'714.5
2018-Feb-19 00:30N 43°55' W 069°11'713.9
2018-Feb-19 00:00N 43°50' W 069°18'5 7.5
2018-Feb-18 23:19N 43°45' W 069°18'514.9
2018-Feb-18 23:01N 43°45' W 069°12'714.1
2018-Feb-18 22:30N 43°47' W 069°02'510.1
2018-Feb-18 21:59N 43°42' W 069°03'  
2018-Feb-15 02:35N 26°13' W 079°24'115.8
2018-Feb-15 02:30N 26°12' W 079°25'816.0
2018-Feb-15 02:00N 26°04' W 079°26'916.8
2018-Feb-15 01:29N 25°55' W 079°27'916.9
2018-Feb-15 00:57N 25°46' W 079°29'  
Track history (hours):
 
Tides and Currents Weather Stations Pressure Air Temp Water Temp Dewpoint Dewpoint Depression Visibility Wind Speed Wind Dir Waves Ship Positions

Industrial Strength

Last reported at 2018-Feb-22 01:58 UTC. Time now 2018-Feb-23 16:31 UTC.
Position N 43°45' W 069°28'.

Length 147 m; draft 6.4 m.

Type: Cargo ship. MMSI: 636017526.

Date/timePositionNaut miles runAvg speedWind from/ knotsBaromVisibWave heightAir tempDewpointWater temp
2018-Feb-22 01:58N 43°45' W 069°28'713.8
2018-Feb-22 01:29N 43°48' W 069°20'511.2
2018-Feb-22 01:00N 43°52' W 069°15'713.5
2018-Feb-22 00:30N 43°56' W 069°07'612.7
2018-Feb-22 00:00N 44°00' W 069°01'815.5
2018-Feb-21 23:30N 44°08' W 069°00'1014.9
2018-Feb-21 22:50N 44°18' W 068°57'814.6
2018-Feb-21 22:18N 44°25' W 068°54'  
2018-Feb-19 03:31N 44°27' W 068°54'0 1.4
2018-Feb-19 03:28N 44°27' W 068°54'8 8.5
2018-Feb-19 02:28N 44°19' W 068°57'715.2
2018-Feb-19 02:00N 44°12' W 069°00'815.0
2018-Feb-19 01:27N 44°04' W 069°01'613.4
2018-Feb-19 01:00N 43°58' W 069°02'714.5
2018-Feb-19 00:30N 43°55' W 069°11'713.9
2018-Feb-19 00:00N 43°50' W 069°18'5 7.5
2018-Feb-18 23:19N 43°45' W 069°18'514.9
2018-Feb-18 23:01N 43°45' W 069°12'714.1
2018-Feb-18 22:30N 43°47' W 069°02'510.1
2018-Feb-18 21:59N 43°42' W 069°03'  
2018-Feb-15 02:35N 26°13' W 079°24'115.8
2018-Feb-15 02:30N 26°12' W 079°25'816.0
2018-Feb-15 02:00N 26°04' W 079°26'916.8
2018-Feb-15 01:29N 25°55' W 079°27'916.9
2018-Feb-15 00:57N 25°46' W 079°29'  

Dump ship's entire track history